Futenma Marine Corps Air Facility, Japan

12:23 AM JST on August 28, 2016 (GMT +0900)
Rebenweg | | Change Station

Elev 0 ft 26.23 °N, 127.73 °E | Updated 5 minutes ago

Partly Cloudy
Partly Cloudy
87.8 °F
Feels Like 102 °F
N
0.0
Wind Variable Wind from North
Gusts 0.6 mph

Today
High -- | Low -- °F
--% Chance of Precip.
Yesterday
High -- | Low -- °F
Precip. -- in
Pressure 29.59 in
Visibility 6.2 miles
Clouds Few 1500 ft
Heat Index 102 °F
Dew Point 79 °F
Humidity 74%
Rainfall --
Snow Depth Not available.
6:07 AM 6:52 PM
Waning Crescent, 23% visible
METAR ROAH 271500Z 34010KT 9999 FEW015 29/26 Q1002 RMK 1CU015 A2959
Pressure 29.59 in
Visibility 6.2 miles
Clouds Few 1500 ft
Heat Index 102 °F
Dew Point 79 °F
Humidity 74%
Rainfall --
Snow Depth Not available.
6:07 AM 6:52 PM
Waning Crescent, 23% visible
METAR ROAH 271500Z 34010KT 9999 FEW015 29/26 Q1002 RMK 1CU015 A2959

10-Day Weather Forecast

No radar image for this location.
×

Almanac

Astronomy

Aug. 28, 2016 Rise Set
Actual Time
Civil Twilight
Nautical Twilight
Astronomical Twilight
Moon
Length of Visible Light
Length of Day
Tomorrow will be .
, % of the Moon is Illuminated

Today's Extremes

Country Highs Country Lows

Community

WunderPhotos

Upload Photos

1,935,356 photos uploaded!

WunderBlog® & News

Nearby

Air Quality

  Air Quality AQ Index Pollutant
Not available.

Snow Depth

Station Depth Elevation

Earthquake Activity

City Distance Mag. Time & Date
Minimum magnitude displayed is 2.5.

Coastal Water Temperatures

Place Temperature

Stations

Nearby Weather Stations

Station Location Temp. Windchill Dew Point Humidity Wind Precip. Elev Updated Type